FW4090 Wirral UK current weather conditions

sailwx.info

Wind from 193 at 3 knots gusting 8

Air temperature 10.0° C
Dewpoint 5.4° C

Last reported at 2020-Apr-04 10:02 UTC.
Time now 2020-Apr-04 10:27 UTC

Location: N 53°23' W 003°06'.
View on Google Maps.

See reports from other nearby stations

  
Tides and Currents Weather Stations Pressure Air Temp Water Temp Dewpoint Dewpoint Depression Visibility Wind Speed Wind Dir Waves Ship Positions
date/time (UTC)wind fromknots sea level pressurealtimeterstation pressurevisibilityair tempwater tempwave heightnotes
2020-Apr-04 10:02 193 3 gusting 8 10.0
2020-Apr-04 09:47 190 2 gusting 6 9.4
2020-Apr-04 09:32 138 2 gusting 6 9.4
2020-Apr-04 09:17 200 3 gusting 8 9.4
2020-Apr-04 09:02 124 4 gusting 8 8.9
2020-Apr-04 08:47 175 4 gusting 10 8.9
2020-Apr-04 08:32 140 3 gusting 7 8.3
2020-Apr-04 08:17 083 1 gusting 6 7.8
2020-Apr-04 08:02 159 2 gusting 10 7.2
2020-Apr-04 07:47 104 1 gusting 6 7.2
2020-Apr-04 07:32 106 0 gusting 6 6.7
2020-Apr-04 07:17 107 3 gusting 7 6.7
2020-Apr-04 07:02 108 3 gusting 7 6.1
2020-Apr-04 06:47 127 3 gusting 6 6.1
2020-Apr-04 06:32 098 1 gusting 7 6.7
2020-Apr-04 06:17 106 3 gusting 9 6.1
2020-Apr-04 06:02 110 4 gusting 8 6.1
2020-Apr-04 05:47 117 2 gusting 6 6.7
2020-Apr-04 05:32 096 1 gusting 6 6.7
2020-Apr-04 05:17 103 0 gusting 4 7.2
2020-Apr-04 05:02 155 7.8
2020-Apr-04 04:47 158 7.8
2020-Apr-04 04:32 143 1 gusting 3 7.2
2020-Apr-04 04:17 136 4 gusting 11 7.8
2020-Apr-04 04:02 161 1 gusting 5 7.2
2020-Apr-04 03:47 208 1 gusting 4 7.2
2020-Apr-04 03:32 191 2 gusting 5 7.2
2020-Apr-04 03:17 217 0 gusting 3 6.7
2020-Apr-04 03:02 104 6.7
2020-Apr-04 02:47 236 0 gusting 4 7.2
2020-Apr-04 02:32 243 1 gusting 6 7.2
2020-Apr-04 02:17 208 1 gusting 4 7.2
2020-Apr-04 02:02 221 2 gusting 5 7.8
2020-Apr-04 01:47 265 1 gusting 5 7.8
2020-Apr-04 01:32 255 1 gusting 6 7.8
2020-Apr-04 01:17 211 1 gusting 5 7.8
2020-Apr-04 01:02 226 2 gusting 7 7.8
2020-Apr-04 00:47 189 3 gusting 9 8.3
2020-Apr-04 00:32 224 4 gusting 11 8.3
2020-Apr-04 00:17 218 5 gusting 12 8.3
2020-Apr-04 00:02 162 6 gusting 12 8.3
2020-Apr-03 23:47 226 5 gusting 12 8.3
2020-Apr-03 23:32 239 4 gusting 14 8.3
2020-Apr-03 23:17 231 6 gusting 12 8.3
2020-Apr-03 23:02 256 6 gusting 13 8.9
2020-Apr-03 22:47 238 6 gusting 13 8.9
2020-Apr-03 22:32 215 6 gusting 13 8.9
2020-Apr-03 22:17 262 6 gusting 13 8.9
2020-Apr-03 22:02 251 5 gusting 13 8.9
2020-Apr-03 21:47 195 5 gusting 10 8.9
2020-Apr-03 21:32 229 6 gusting 13 8.9
2020-Apr-03 21:17 225 6 gusting 12 8.9
2020-Apr-03 21:02 167 5 gusting 13 8.9
2020-Apr-03 20:47 224 4 gusting 11 8.9
2020-Apr-03 20:32 221 3 gusting 7 8.9
2020-Apr-03 20:17 217 1 gusting 6 8.9
2020-Apr-03 20:02 255 3 gusting 9 9.4
2020-Apr-03 19:47 219 3 gusting 7 9.4
2020-Apr-03 19:32 234 3 gusting 10 9.4
2020-Apr-03 19:17 181 3 gusting 8 9.4
2020-Apr-03 19:02 233 4 gusting 11 9.4
2020-Apr-03 18:47 201 4 gusting 8 9.4
2020-Apr-03 18:32 233 9.4
2020-Apr-03 18:17 294 9.4
2020-Apr-03 18:02 285 1 gusting 5 9.4
2020-Apr-03 17:47 292 2 gusting 7 10.0
2020-Apr-03 17:32 272 1 gusting 5 10.0
2020-Apr-03 17:17 331 1 gusting 4 10.0
2020-Apr-03 17:02 289 3 gusting 6 10.0
2020-Apr-03 16:47 255 3 gusting 6 10.6
2020-Apr-03 16:31 301 3 gusting 7 10.6
2020-Apr-03 16:16 304 4 gusting 9 10.6
2020-Apr-03 16:01 018 4 gusting 10 10.6
2020-Apr-03 15:46 290 5 gusting 11 10.6
2020-Apr-03 15:31 257 5 gusting 10 10.6
2020-Apr-03 15:16 282 3 gusting 9 10.0
2020-Apr-03 15:01 328 4 gusting 11 10.0
2020-Apr-03 14:46 326 5 gusting 12 10.0
2020-Apr-03 14:31 294 5 gusting 13 10.0
2020-Apr-03 14:16 321 5 gusting 11 10.0
2020-Apr-03 14:01 285 5 gusting 13 10.0
2020-Apr-03 13:47 278 7 gusting 16 10.0
2020-Apr-03 13:31 279 4 gusting 10 9.4
2020-Apr-03 13:16 274 3 gusting 9 10.0
2020-Apr-03 13:01 228 6 gusting 12 9.4
2020-Apr-03 12:47 276 6 gusting 13 8.9
2020-Apr-03 11:32 275 6 gusting 12 8.9
2020-Apr-03 11:16 293 6 gusting 13 8.9
2020-Apr-03 11:09 307 6 gusting 12 8.9
2020-Apr-03 10:46 274 6 gusting 12 8.9
2020-Apr-03 10:31 286 6 gusting 13 8.9
2020-Apr-03 10:16 282 6 gusting 12 8.3
2020-Apr-03 10:01 236 6 gusting 12 7.8
2020-Apr-03 09:46 321 6 gusting 12 7.8
2020-Apr-03 09:31 289 4 gusting 13 7.8
2020-Apr-03 09:16 266 5 gusting 11 7.8
2020-Apr-03 09:01 230 5 gusting 13 7.2
2020-Apr-03 08:47 278 6 gusting 12 7.8
2020-Apr-03 08:31 264 5 gusting 12 7.8
2020-Apr-03 08:16 260 4 gusting 10 7.2
2020-Apr-03 08:01 253 4 gusting 10 7.2
2020-Apr-03 07:46 248 4 gusting 11 6.7
2020-Apr-03 07:31 183 4 gusting 11 6.7
2020-Apr-03 07:16 239 3 gusting 11 7.2
2020-Apr-03 07:01 236 4 gusting 11 6.7
2020-Apr-03 06:46 231 5 gusting 11 6.7
2020-Apr-03 06:31 278 6 gusting 12 6.7
2020-Apr-03 06:16 281 5 gusting 11 6.7
2020-Apr-03 06:01 231 6 gusting 10 6.7
2020-Apr-03 05:46 269 6 gusting 12 6.7
2020-Apr-03 05:31 288 6 gusting 10 6.7
2020-Apr-03 05:16 295 3 gusting 8 6.7
2020-Apr-03 05:01 295 3 gusting 8 6.7
2020-Apr-03 04:46 269 3 gusting 7 6.7
2020-Apr-03 04:31 287 3 gusting 7 6.7
2020-Apr-03 04:16 288 2 gusting 9 6.7
2020-Apr-03 04:01 274 3 gusting 6 6.7
2020-Apr-03 03:46 267 3 gusting 8 6.7
2020-Apr-03 03:31 305 2 gusting 7 6.7
2020-Apr-03 03:16 276 2 gusting 6 6.7
2020-Apr-03 03:01 323 2 gusting 5 6.7
2020-Apr-03 02:46 300 2 gusting 6 6.7
2020-Apr-03 02:31 297 2 gusting 6 6.7
2020-Apr-03 02:16 295 2 gusting 6 6.7
2020-Apr-03 02:01 311 1 gusting 6 6.7
2020-Apr-03 01:46 321 1 gusting 5 6.7
2020-Apr-03 01:31 027 1 gusting 5 6.7
2020-Apr-03 01:16 342 1 gusting 4 6.7
2020-Apr-03 01:01 283 1 gusting 6 6.7
2020-Apr-03 00:46 014 2 gusting 6 6.7
2020-Apr-03 00:31 294 2 gusting 7 6.7
2020-Apr-03 00:16 343 1 gusting 7 6.7
2020-Apr-03 00:01 345 1 gusting 6 6.7
2020-Apr-02 23:46 309 2 gusting 6 6.7
2020-Apr-02 23:31 335 1 gusting 5 7.2
2020-Apr-02 23:16 319 2 gusting 8 7.2
2020-Apr-02 23:01 324 2 gusting 6 7.2
2020-Apr-02 22:46 316 2 gusting 7 7.8
2020-Apr-02 22:31 293 1 gusting 6 7.8
2020-Apr-02 18:31
2020-Apr-02 18:16
2020-Apr-02 18:01
2020-Apr-02 17:46
2020-Apr-02 17:31
2020-Apr-02 17:16
2020-Apr-02 17:01
2020-Apr-02 16:46 031 5 gusting 11 8.3
2020-Apr-02 16:31 333 4 gusting 11 9.4
2020-Apr-02 16:16 277 4 gusting 9 9.4
2020-Apr-02 16:01 8.9
2020-Apr-02 15:16 299 8 gusting 14 9.4
2020-Apr-02 15:01 9.4
2020-Apr-02 14:46
2020-Apr-02 14:31 9.4
2020-Apr-02 14:16 9.4
2020-Apr-02 14:01
2020-Apr-02 13:46
2020-Apr-02 13:31
2020-Apr-02 13:16
2020-Apr-02 13:01